sensor_id;sensor_type;location;lat;lon;timestamp;pressure;altitude;pressure_sealevel;temperature;humidity
45525;BME280;31437;58.350;13.828;2023-03-20T00:02:09;101468.88;;;5.63;100.00
45525;BME280;31437;58.350;13.828;2023-03-20T00:04:41;101471.44;;;5.64;100.00
45525;BME280;31437;58.350;13.828;2023-03-20T00:07:06;101472.34;;;5.63;100.00
45525;BME280;31437;58.350;13.828;2023-03-20T00:09:36;101475.78;;;5.65;100.00
45525;BME280;31437;58.350;13.828;2023-03-20T00:12:01;101466.22;;;5.64;100.00
45525;BME280;31437;58.350;13.828;2023-03-20T00:14:27;101471.44;;;5.64;100.00
45525;BME280;31437;58.350;13.828;2023-03-20T00:16:52;101479.25;;;5.64;100.00
45525;BME280;31437;58.350;13.828;2023-03-20T00:21:46;101487.94;;;5.65;100.00
45525;BME280;31437;58.350;13.828;2023-03-20T00:24:12;101494.88;;;5.64;100.00
45525;BME280;31437;58.350;13.828;2023-03-20T00:26:37;101499.22;;;5.64;100.00
45525;BME280;31437;58.350;13.828;2023-03-20T00:29:03;101497.47;;;5.64;100.00
45525;BME280;31437;58.350;13.828;2023-03-20T00:31:30;101498.38;;;5.65;100.00
45525;BME280;31437;58.350;13.828;2023-03-20T00:33:57;101508.75;;;5.66;100.00
45525;BME280;31437;58.350;13.828;2023-03-20T00:36:22;101512.22;;;5.65;100.00
45525;BME280;31437;58.350;13.828;2023-03-20T00:38:48;101526.97;;;5.66;100.00
45525;BME280;31437;58.350;13.828;2023-03-20T00:41:19;101531.31;;;5.66;100.00
45525;BME280;31437;58.350;13.828;2023-03-20T00:43:46;101539.13;;;5.66;100.00
45525;BME280;31437;58.350;13.828;2023-03-20T00:46:12;101539.97;;;5.66;100.00
45525;BME280;31437;58.350;13.828;2023-03-20T00:48:38;101544.34;;;5.66;100.00
45525;BME280;31437;58.350;13.828;2023-03-20T00:51:04;101545.22;;;5.65;100.00
45525;BME280;31437;58.350;13.828;2023-03-20T00:53:30;101551.28;;;5.65;100.00
45525;BME280;31437;58.350;13.828;2023-03-20T00:55:55;101550.44;;;5.63;100.00
45525;BME280;31437;58.350;13.828;2023-03-20T00:58:20;101555.63;;;5.63;100.00
45525;BME280;31437;58.350;13.828;2023-03-20T01:00:45;101561.75;;;5.62;100.00
45525;BME280;31437;58.350;13.828;2023-03-20T01:03:18;101568.69;;;5.62;100.00
45525;BME280;31437;58.350;13.828;2023-03-20T01:05:44;101571.28;;;5.62;100.00
45525;BME280;31437;58.350;13.828;2023-03-20T01:10:41;101580.81;;;5.61;100.00
45525;BME280;31437;58.350;13.828;2023-03-20T01:13:12;101578.25;;;5.60;100.00
45525;BME280;31437;58.350;13.828;2023-03-20T01:15:39;101586.91;;;5.59;100.00
45525;BME280;31437;58.350;13.828;2023-03-20T01:18:05;101590.41;;;5.59;100.00
45525;BME280;31437;58.350;13.828;2023-03-20T01:20:30;101593.00;;;5.59;100.00
45525;BME280;31437;58.350;13.828;2023-03-20T01:22:56;101606.88;;;5.60;100.00
45525;BME280;31437;58.350;13.828;2023-03-20T01:25:21;101612.94;;;5.59;100.00
45525;BME280;31437;58.350;13.828;2023-03-20T01:27:50;101619.91;;;5.58;100.00
45525;BME280;31437;58.350;13.828;2023-03-20T01:30:18;101625.97;;;5.59;100.00
45525;BME280;31437;58.350;13.828;2023-03-20T01:32:43;101625.13;;;5.60;100.00
45525;BME280;31437;58.350;13.828;2023-03-20T01:35:13;101623.38;;;5.59;100.00
45525;BME280;31437;58.350;13.828;2023-03-20T01:37:40;101627.72;;;5.58;100.00
45525;BME280;31437;58.350;13.828;2023-03-20T01:40:12;101631.22;;;5.57;100.00
45525;BME280;31437;58.350;13.828;2023-03-20T01:42:40;101640.72;;;5.58;100.00
45525;BME280;31437;58.350;13.828;2023-03-20T01:45:14;101643.38;;;5.57;100.00
45525;BME280;31437;58.350;13.828;2023-03-20T01:47:40;101652.03;;;5.57;100.00
45525;BME280;31437;58.350;13.828;2023-03-20T01:52:57;101669.41;;;5.57;100.00
45525;BME280;31437;58.350;13.828;2023-03-20T01:55:25;101669.41;;;5.55;100.00
45525;BME280;31437;58.350;13.828;2023-03-20T01:57:50;101671.16;;;5.55;100.00
45525;BME280;31437;58.350;13.828;2023-03-20T02:00:17;101672.84;;;5.56;100.00
45525;BME280;31437;58.350;13.828;2023-03-20T02:02:44;101684.16;;;5.55;100.00
45525;BME280;31437;58.350;13.828;2023-03-20T02:05:11;101688.50;;;5.54;100.00
45525;BME280;31437;58.350;13.828;2023-03-20T02:07:39;101692.00;;;5.53;100.00
45525;BME280;31437;58.350;13.828;2023-03-20T02:10:07;101689.41;;;5.53;100.00
45525;BME280;31437;58.350;13.828;2023-03-20T02:12:33;101685.94;;;5.51;100.00
45525;BME280;31437;58.350;13.828;2023-03-20T02:14:59;101694.59;;;5.52;100.00
45525;BME280;31437;58.350;13.828;2023-03-20T02:17:25;101693.75;;;5.51;100.00
45525;BME280;31437;58.350;13.828;2023-03-20T02:27:32;101718.91;;;5.51;100.00
45525;BME280;31437;58.350;13.828;2023-03-20T02:50:39;101751.03;;;5.46;100.00
45525;BME280;31437;58.350;13.828;2023-03-20T02:53:14;101755.38;;;5.46;100.00
45525;BME280;31437;58.350;13.828;2023-03-20T02:56:06;101764.91;;;5.47;100.00
45525;BME280;31437;58.350;13.828;2023-03-20T03:01:01;101772.72;;;5.49;100.00
45525;BME280;31437;58.350;13.828;2023-03-20T03:03:43;101783.13;;;5.49;100.00
45525;BME280;31437;58.350;13.828;2023-03-20T03:06:11;101780.53;;;5.49;100.00
45525;BME280;31437;58.350;13.828;2023-03-20T03:08:41;101786.59;;;5.49;100.00
45525;BME280;31437;58.350;13.828;2023-03-20T03:11:08;101784.03;;;5.47;100.00
45525;BME280;31437;58.350;13.828;2023-03-20T03:13:41;101792.69;;;5.48;100.00
45525;BME280;31437;58.350;13.828;2023-03-20T03:16:14;101790.06;;;5.46;100.00
45525;BME280;31437;58.350;13.828;2023-03-20T03:18:41;101795.28;;;5.46;100.00
45525;BME280;31437;58.350;13.828;2023-03-20T03:21:08;101794.41;;;5.46;100.00
45525;BME280;31437;58.350;13.828;2023-03-20T03:23:38;101804.84;;;5.47;100.00
45525;BME280;31437;58.350;13.828;2023-03-20T03:26:08;101795.28;;;5.48;100.00
45525;BME280;31437;58.350;13.828;2023-03-20T03:28:39;101793.53;;;5.49;100.00
45525;BME280;31437;58.350;13.828;2023-03-20T03:31:07;101790.94;;;5.49;100.00
45525;BME280;31437;58.350;13.828;2023-03-20T03:33:34;101788.34;;;5.50;100.00
45525;BME280;31437;58.350;13.828;2023-03-20T03:36:05;101777.03;;;5.50;100.00
45525;BME280;31437;58.350;13.828;2023-03-20T03:41:14;101774.47;;;5.48;100.00
45525;BME280;31437;58.350;13.828;2023-03-20T03:43:42;101769.25;;;5.48;100.00
45525;BME280;31437;58.350;13.828;2023-03-20T03:46:15;101771.00;;;5.46;100.00
45525;BME280;31437;58.350;13.828;2023-03-20T03:48:45;101768.44;;;5.44;100.00
45525;BME280;31437;58.350;13.828;2023-03-20T03:51:15;101766.69;;;5.45;100.00
45525;BME280;31437;58.350;13.828;2023-03-20T03:53:44;101764.06;;;5.45;100.00
45525;BME280;31437;58.350;13.828;2023-03-20T03:56:13;101764.94;;;5.45;100.00
45525;BME280;31437;58.350;13.828;2023-03-20T03:58:41;101765.81;;;5.44;100.00
45525;BME280;31437;58.350;13.828;2023-03-20T04:01:08;101764.06;;;5.45;100.00
45525;BME280;31437;58.350;13.828;2023-03-20T04:03:38;101756.25;;;5.43;100.00
45525;BME280;31437;58.350;13.828;2023-03-20T04:06:04;101762.31;;;5.44;100.00
45525;BME280;31437;58.350;13.828;2023-03-20T04:08:30;101758.00;;;5.44;100.00
45525;BME280;31437;58.350;13.828;2023-03-20T04:10:56;101753.66;;;5.43;100.00
45525;BME280;31437;58.350;13.828;2023-03-20T04:13:21;101758.88;;;5.45;100.00
45525;BME280;31437;58.350;13.828;2023-03-20T04:15:46;101749.31;;;5.44;100.00
45525;BME280;31437;58.350;13.828;2023-03-20T04:18:15;101751.06;;;5.43;100.00
45525;BME280;31437;58.350;13.828;2023-03-20T04:20:42;101749.31;;;5.44;100.00
45525;BME280;31437;58.350;13.828;2023-03-20T04:23:07;101749.31;;;5.44;100.00
45525;BME280;31437;58.350;13.828;2023-03-20T04:25:33;101745.84;;;5.45;100.00
45525;BME280;31437;58.350;13.828;2023-03-20T04:27:58;101752.78;;;5.46;100.00
45525;BME280;31437;58.350;13.828;2023-03-20T04:30:23;101754.53;;;5.45;100.00
45525;BME280;31437;58.350;13.828;2023-03-20T04:32:49;101756.25;;;5.46;100.00
45525;BME280;31437;58.350;13.828;2023-03-20T04:35:14;101754.50;;;5.47;100.00
45525;BME280;31437;58.350;13.828;2023-03-20T04:37:40;101748.44;;;5.46;100.00
45525;BME280;31437;58.350;13.828;2023-03-20T04:40:05;101757.09;;;5.49;100.00
45525;BME280;31437;58.350;13.828;2023-03-20T04:42:30;101754.50;;;5.49;100.00
45525;BME280;31437;58.350;13.828;2023-03-20T04:44:56;101746.69;;;5.47;100.00
45525;BME280;31437;58.350;13.828;2023-03-20T04:47:21;101746.72;;;5.45;100.00
45525;BME280;31437;58.350;13.828;2023-03-20T04:49:46;101751.03;;;5.46;100.00
45525;BME280;31437;58.350;13.828;2023-03-20T04:52:12;101744.09;;;5.47;100.00
45525;BME280;31437;58.350;13.828;2023-03-20T04:54:37;101747.56;;;5.46;100.00
45525;BME280;31437;58.350;13.828;2023-03-20T04:57:02;101751.91;;;5.45;100.00
45525;BME280;31437;58.350;13.828;2023-03-20T04:59:28;101748.44;;;5.46;100.00
45525;BME280;31437;58.350;13.828;2023-03-20T05:01:53;101751.91;;;5.45;100.00
45525;BME280;31437;58.350;13.828;2023-03-20T05:04:18;101763.19;;;5.46;100.00
45525;BME280;31437;58.350;13.828;2023-03-20T05:06:43;101762.34;;;5.45;100.00
45525;BME280;31437;58.350;13.828;2023-03-20T05:09:12;101774.50;;;5.45;100.00
45525;BME280;31437;58.350;13.828;2023-03-20T05:11:37;101776.22;;;5.44;100.00
45525;BME280;31437;58.350;13.828;2023-03-20T05:14:03;101778.84;;;5.44;100.00
45525;BME280;31437;58.350;13.828;2023-03-20T05:16:29;101779.69;;;5.45;100.00
45525;BME280;31437;58.350;13.828;2023-03-20T05:18:54;101771.91;;;5.42;100.00
45525;BME280;31437;58.350;13.828;2023-03-20T05:21:20;101781.44;;;5.43;100.00
45525;BME280;31437;58.350;13.828;2023-03-20T05:23:45;101771.88;;;5.43;100.00
45525;BME280;31437;58.350;13.828;2023-03-20T05:26:10;101765.84;;;5.41;100.00
45525;BME280;31437;58.350;13.828;2023-03-20T05:28:36;101766.69;;;5.43;100.00
45525;BME280;31437;58.350;13.828;2023-03-20T05:31:01;101771.03;;;5.44;100.00
45525;BME280;31437;58.350;13.828;2023-03-20T05:33:26;101771.88;;;5.43;100.00
45525;BME280;31437;58.350;13.828;2023-03-20T05:35:51;101768.41;;;5.43;100.00
45525;BME280;31437;58.350;13.828;2023-03-20T05:38:17;101764.09;;;5.42;100.00
45525;BME280;31437;58.350;13.828;2023-03-20T05:40:46;101768.41;;;5.43;100.00
45525;BME280;31437;58.350;13.828;2023-03-20T05:43:11;101750.22;;;5.41;100.00
45525;BME280;31437;58.350;13.828;2023-03-20T05:45:37;101754.53;;;5.41;100.00
45525;BME280;31437;58.350;13.828;2023-03-20T05:48:02;101751.94;;;5.41;100.00
45525;BME280;31437;58.350;13.828;2023-03-20T05:50:27;101746.75;;;5.41;100.00
45525;BME280;31437;58.350;13.828;2023-03-20T05:52:53;101746.75;;;5.41;100.00
45525;BME280;31437;58.350;13.828;2023-03-20T05:55:18;101736.31;;;5.41;100.00
45525;BME280;31437;58.350;13.828;2023-03-20T05:57:43;101735.47;;;5.40;100.00
45525;BME280;31437;58.350;13.828;2023-03-20T06:00:09;101729.41;;;5.40;100.00
45525;BME280;31437;58.350;13.828;2023-03-20T06:02:34;101721.59;;;5.41;100.00
45525;BME280;31437;58.350;13.828;2023-03-20T06:05:00;101722.44;;;5.43;100.00
45525;BME280;31437;58.350;13.828;2023-03-20T06:07:26;101712.06;;;5.42;100.00
45525;BME280;31437;58.350;13.828;2023-03-20T06:09:51;101705.97;;;5.43;100.00
45525;BME280;31437;58.350;13.828;2023-03-20T06:12:16;101699.88;;;5.44;100.00
45525;BME280;31437;58.350;13.828;2023-03-20T06:14:41;101695.53;;;5.43;100.00
45525;BME280;31437;58.350;13.828;2023-03-20T06:17:07;101697.25;;;5.44;100.00
45525;BME280;31437;58.350;13.828;2023-03-20T06:19:32;101689.44;;;5.44;100.00
45525;BME280;31437;58.350;13.828;2023-03-20T06:21:58;101692.06;;;5.44;100.00
45525;BME280;31437;58.350;13.828;2023-03-20T06:24:23;101692.06;;;5.45;100.00
45525;BME280;31437;58.350;13.828;2023-03-20T06:26:49;101685.09;;;5.46;100.00
45525;BME280;31437;58.350;13.828;2023-03-20T06:29:14;101672.13;;;5.44;100.00
45525;BME280;31437;58.350;13.828;2023-03-20T06:31:39;101673.84;;;5.44;100.00
45525;BME280;31437;58.350;13.828;2023-03-20T06:34:04;101670.38;;;5.45;100.00
45525;BME280;31437;58.350;13.828;2023-03-20T06:36:31;101665.16;;;5.45;100.00
45525;BME280;31437;58.350;13.828;2023-03-20T06:38:57;101634.91;;;5.32;100.00
45525;BME280;31437;58.350;13.828;2023-03-20T06:41:22;101641.75;;;5.43;100.00
45525;BME280;31437;58.350;13.828;2023-03-20T06:43:47;101652.16;;;5.45;100.00
45525;BME280;31437;58.350;13.828;2023-03-20T06:46:13;101651.28;;;5.46;100.00
45525;BME280;31437;58.350;13.828;2023-03-20T06:48:39;101642.59;;;5.45;100.00
45525;BME280;31437;58.350;13.828;2023-03-20T06:51:04;101636.53;;;5.43;100.00
45525;BME280;31437;58.350;13.828;2023-03-20T06:53:30;101626.16;;;5.42;100.00
45525;BME280;31437;58.350;13.828;2023-03-20T06:55:55;101622.72;;;5.41;100.00
45525;BME280;31437;58.350;13.828;2023-03-20T06:58:20;101619.22;;;5.41;100.00
45525;BME280;31437;58.350;13.828;2023-03-20T07:00:46;101620.09;;;5.40;100.00
45525;BME280;31437;58.350;13.828;2023-03-20T07:03:11;101613.16;;;5.40;100.00
45525;BME280;31437;58.350;13.828;2023-03-20T07:05:37;101605.34;;;5.42;100.00
45525;BME280;31437;58.350;13.828;2023-03-20T07:08:03;101612.25;;;5.44;100.00
45525;BME280;31437;58.350;13.828;2023-03-20T07:10:29;101600.97;;;5.45;100.00
45525;BME280;31437;58.350;13.828;2023-03-20T07:12:55;101593.13;;;5.47;100.00
45525;BME280;31437;58.350;13.828;2023-03-20T07:15:21;101590.53;;;5.49;100.00
45525;BME280;31437;58.350;13.828;2023-03-20T07:17:46;101587.03;;;5.51;100.00
45525;BME280;31437;58.350;13.828;2023-03-20T07:20:11;101571.41;;;5.51;100.00
45525;BME280;31437;58.350;13.828;2023-03-20T07:22:37;101563.59;;;5.51;100.00
45525;BME280;31437;58.350;13.828;2023-03-20T07:25:03;101557.50;;;5.54;100.00
45525;BME280;31437;58.350;13.828;2023-03-20T07:27:29;101553.16;;;5.54;100.00
45525;BME280;31437;58.350;13.828;2023-03-20T07:29:54;101548.81;;;5.55;100.00
45525;BME280;31437;58.350;13.828;2023-03-20T07:32:21;101539.28;;;5.52;100.00
45525;BME280;31437;58.350;13.828;2023-03-20T07:34:46;101525.44;;;5.49;100.00
45525;BME280;31437;58.350;13.828;2023-03-20T07:37:13;101524.56;;;5.50;100.00
45525;BME280;31437;58.350;13.828;2023-03-20T07:39:39;101509.84;;;5.47;100.00
45525;BME280;31437;58.350;13.828;2023-03-20T07:42:04;101496.84;;;5.45;100.00
45525;BME280;31437;58.350;13.828;2023-03-20T07:44:30;101492.50;;;5.46;100.00
45525;BME280;31437;58.350;13.828;2023-03-20T07:46:56;101469.97;;;5.45;100.00
45525;BME280;31437;58.350;13.828;2023-03-20T07:49:21;101463.88;;;5.46;100.00
45525;BME280;31437;58.350;13.828;2023-03-20T07:51:47;101457.78;;;5.47;100.00
45525;BME280;31437;58.350;13.828;2023-03-20T07:54:12;101441.31;;;5.48;100.00
45525;BME280;31437;58.350;13.828;2023-03-20T07:56:38;101438.66;;;5.51;100.00
45525;BME280;31437;58.350;13.828;2023-03-20T07:59:04;101429.09;;;5.53;100.00
45525;BME280;31437;58.350;13.828;2023-03-20T08:01:29;101361.84;;;5.24;100.00
45525;BME280;31437;58.350;13.828;2023-03-20T08:03:56;101400.38;;;5.58;100.00
45525;BME280;31437;58.350;13.828;2023-03-20T08:06:21;101397.78;;;5.59;100.00
45525;BME280;31437;58.350;13.828;2023-03-20T08:08:47;101390.81;;;5.60;100.00
45525;BME280;31437;58.350;13.828;2023-03-20T08:11:15;101378.66;;;5.62;100.00
45525;BME280;31437;58.350;13.828;2023-03-20T08:13:41;101369.94;;;5.63;100.00
45525;BME280;31437;58.350;13.828;2023-03-20T08:16:06;101362.13;;;5.63;100.00
45525;BME280;31437;58.350;13.828;2023-03-20T08:18:31;101347.41;;;5.62;100.00
45525;BME280;31437;58.350;13.828;2023-03-20T08:20:58;101337.84;;;5.62;100.00
45525;BME280;31437;58.350;13.828;2023-03-20T08:23:23;101326.59;;;5.62;100.00
45525;BME280;31437;58.350;13.828;2023-03-20T08:25:49;101312.63;;;5.66;100.00
45525;BME280;31437;58.350;13.828;2023-03-20T08:28:15;101297.88;;;5.66;100.00
45525;BME280;31437;58.350;13.828;2023-03-20T08:30:40;101290.09;;;5.63;100.00
45525;BME280;31437;58.350;13.828;2023-03-20T08:33:05;101284.88;;;5.65;100.00
45525;BME280;31437;58.350;13.828;2023-03-20T08:35:32;101268.44;;;5.63;100.00
45525;BME280;31437;58.350;13.828;2023-03-20T08:37:57;101258.00;;;5.63;100.00
45525;BME280;31437;58.350;13.828;2023-03-20T08:40:23;101251.84;;;5.67;100.00
45525;BME280;31437;58.350;13.828;2023-03-20T08:42:50;101237.09;;;5.67;100.00
45525;BME280;31437;58.350;13.828;2023-03-20T08:45:16;101236.22;;;5.68;100.00
45525;BME280;31437;58.350;13.828;2023-03-20T08:47:41;101230.09;;;5.71;100.00
45525;BME280;31437;58.350;13.828;2023-03-20T08:50:07;101217.88;;;5.75;100.00
45525;BME280;31437;58.350;13.828;2023-03-20T08:52:34;101207.34;;;5.81;100.00
45525;BME280;31437;58.350;13.828;2023-03-20T08:55:00;101203.81;;;5.85;100.00
45525;BME280;31437;58.350;13.828;2023-03-20T08:57:26;101192.47;;;5.89;100.00
45525;BME280;31437;58.350;13.828;2023-03-20T08:59:52;101181.97;;;5.92;100.00
45525;BME280;31437;58.350;13.828;2023-03-20T09:25:31;101033.50;;;5.95;100.00
45525;BME280;31437;58.350;13.828;2023-03-20T09:27:56;101016.97;;;5.96;100.00
45525;BME280;31437;58.350;13.828;2023-03-20T09:30:22;101010.91;;;5.96;100.00
45525;BME280;31437;58.350;13.828;2023-03-20T09:32:58;101004.78;;;5.98;100.00
45525;BME280;31437;58.350;13.828;2023-03-20T09:35:23;100998.59;;;6.02;100.00
45525;BME280;31437;58.350;13.828;2023-03-20T09:37:48;100986.56;;;5.98;100.00
45525;BME280;31437;58.350;13.828;2023-03-20T09:40:27;100982.25;;;5.97;100.00
45525;BME280;31437;58.350;13.828;2023-03-20T09:53:31;100915.81;;;5.76;100.00
45525;BME280;31437;58.350;13.828;2023-03-20T09:56:01;100891.81;;;5.65;100.00
45525;BME280;31437;58.350;13.828;2023-03-20T09:58:30;100880.59;;;5.61;100.00
45525;BME280;31437;58.350;13.828;2023-03-20T10:03:43;100857.28;;;5.57;100.00
45525;BME280;31437;58.350;13.828;2023-03-20T10:06:12;100857.28;;;5.57;100.00
45525;BME280;31437;58.350;13.828;2023-03-20T10:29:25;100805.44;;;5.47;100.00
45525;BME280;31437;58.350;13.828;2023-03-20T10:50:09;100774.97;;;5.87;100.00
45525;BME280;31437;58.350;13.828;2023-03-20T10:52:39;100777.13;;;6.05;100.00
45525;BME280;31437;58.350;13.828;2023-03-20T10:57:43;100762.75;;;6.23;100.00
45525;BME280;31437;58.350;13.828;2023-03-20T11:02:44;100742.63;;;6.30;100.00
45525;BME280;31437;58.350;13.828;2023-03-20T11:05:21;100726.00;;;6.34;100.00
45525;BME280;31437;58.350;13.828;2023-03-20T11:10:24;100686.63;;;6.45;100.00
45525;BME280;31437;58.350;13.828;2023-03-20T11:12:50;100673.50;;;6.48;100.00
45525;BME280;31437;58.350;13.828;2023-03-20T11:23:01;100589.47;;;6.68;100.00
45525;BME280;31437;58.350;13.828;2023-03-20T11:25:28;100572.81;;;6.72;100.00
45525;BME280;31437;58.350;13.828;2023-03-20T11:27:55;100553.56;;;6.76;100.00
45525;BME280;31437;58.350;13.828;2023-03-20T11:30:20;100538.94;;;6.72;100.00
45525;BME280;31437;58.350;13.828;2023-03-20T11:32:46;100516.31;;;6.72;100.00
45525;BME280;31437;58.350;13.828;2023-03-20T11:37:51;100485.88;;;6.73;100.00
45525;BME280;31437;58.350;13.828;2023-03-20T11:42:55;100457.03;;;6.77;100.00
45525;BME280;31437;58.350;13.828;2023-03-20T11:45:21;100451.28;;;6.93;100.00
45525;BME280;31437;58.350;13.828;2023-03-20T11:47:48;100449.28;;;7.01;100.00
45525;BME280;31437;58.350;13.828;2023-03-20T11:50:31;100440.97;;;7.15;100.00
45525;BME280;31437;58.350;13.828;2023-03-20T11:52:59;100424.09;;;7.23;100.00
45525;BME280;31437;58.350;13.828;2023-03-20T11:55:32;100409.94;;;7.31;100.00
45525;BME280;31437;58.350;13.828;2023-03-20T11:57:58;100383.16;;;7.25;100.00
45525;BME280;31437;58.350;13.828;2023-03-20T12:00:25;100389.50;;;7.42;100.00
45525;BME280;31437;58.350;13.828;2023-03-20T12:02:52;100366.16;;;7.39;100.00
45525;BME280;31437;58.350;13.828;2023-03-20T12:07:43;100346.72;;;7.46;100.00
45525;BME280;31437;58.350;13.828;2023-03-20T12:10:11;100335.88;;;7.57;100.00
45525;BME280;31437;58.350;13.828;2023-03-20T12:12:53;100338.03;;;7.67;100.00
45525;BME280;31437;58.350;13.828;2023-03-20T12:15:32;100331.84;;;7.92;100.00
45525;BME280;31437;58.350;13.828;2023-03-20T12:23:20;100310.97;;;8.33;100.00
45525;BME280;31437;58.350;13.828;2023-03-20T12:25:49;100303.84;;;8.36;100.00
45525;BME280;31437;58.350;13.828;2023-03-20T12:28:17;100295.34;;;8.31;100.00
45525;BME280;31437;58.350;13.828;2023-03-20T12:35:51;100267.91;;;8.01;100.00
45525;BME280;31437;58.350;13.828;2023-03-20T12:38:27;100250.59;;;7.78;100.00
45525;BME280;31437;58.350;13.828;2023-03-20T12:40:57;100248.88;;;7.56;100.00
45525;BME280;31437;58.350;13.828;2023-03-20T12:43:29;100254.81;;;7.38;100.00
45525;BME280;31437;58.350;13.828;2023-03-20T12:46:07;100251.00;;;7.24;100.00
45525;BME280;31437;58.350;13.828;2023-03-20T13:06:59;100284.94;;;6.29;100.00
45525;BME280;31437;58.350;13.828;2023-03-20T13:16:50;100308.91;;;5.87;100.00
45525;BME280;31437;58.350;13.828;2023-03-20T13:19:23;100322.06;;;5.82;100.00
45525;BME280;31437;58.350;13.828;2023-03-20T13:21:52;100320.28;;;5.84;100.00
45525;BME280;31437;58.350;13.828;2023-03-20T13:37:32;100383.84;;;6.05;100.00
45525;BME280;31437;58.350;13.828;2023-03-20T13:45:20;100398.69;;;6.03;100.00
45525;BME280;31437;58.350;13.828;2023-03-20T13:47:48;100402.34;;;5.98;100.00
45525;BME280;31437;58.350;13.828;2023-03-20T13:53:09;100417.13;;;5.97;100.00
45525;BME280;31437;58.350;13.828;2023-03-20T14:00:58;100417.00;;;5.72;100.00
45525;BME280;31437;58.350;13.828;2023-03-20T14:03:28;100409.50;;;5.61;100.00
45525;BME280;31437;58.350;13.828;2023-03-20T14:05:56;100414.09;;;5.53;100.00
45525;BME280;31437;58.350;13.828;2023-03-20T14:10:46;100425.81;;;5.38;100.00
45525;BME280;31437;58.350;13.828;2023-03-20T14:13:13;100435.53;;;5.32;100.00
45525;BME280;31437;58.350;13.828;2023-03-20T14:15:43;100447.75;;;5.30;100.00
45525;BME280;31437;58.350;13.828;2023-03-20T14:18:17;100452.97;;;5.28;100.00
45525;BME280;31437;58.350;13.828;2023-03-20T14:20:43;100471.16;;;5.30;100.00
45525;BME280;31437;58.350;13.828;2023-03-20T14:23:16;100480.59;;;5.32;100.00
45525;BME280;31437;58.350;13.828;2023-03-20T14:25:42;100490.22;;;5.29;100.00
45525;BME280;31437;58.350;13.828;2023-03-20T14:30:44;100499.84;;;5.27;100.00
45525;BME280;31437;58.350;13.828;2023-03-20T14:35:49;100515.81;;;5.13;100.00
45525;BME280;31437;58.350;13.828;2023-03-20T14:46:28;100532.75;;;4.95;100.00
45525;BME280;31437;58.350;13.828;2023-03-20T14:48:57;100531.06;;;4.92;100.00
45525;BME280;31437;58.350;13.828;2023-03-20T14:51:36;100547.56;;;4.91;100.00
45525;BME280;31437;58.350;13.828;2023-03-20T14:56:50;100556.31;;;4.89;100.00
45525;BME280;31437;58.350;13.828;2023-03-20T14:59:16;100567.56;;;4.88;100.00
45525;BME280;31437;58.350;13.828;2023-03-20T15:01:43;100571.94;;;4.87;100.00
45525;BME280;31437;58.350;13.828;2023-03-20T15:06:47;100586.59;;;4.90;100.00
45525;BME280;31437;58.350;13.828;2023-03-20T15:09:15;100584.06;;;4.88;100.00
45525;BME280;31437;58.350;13.828;2023-03-20T15:11:41;100589.28;;;4.87;100.00
45525;BME280;31437;58.350;13.828;2023-03-20T15:14:06;100596.22;;;4.86;100.00
45525;BME280;31437;58.350;13.828;2023-03-20T15:16:34;100603.19;;;4.84;100.00
45525;BME280;31437;58.350;13.828;2023-03-20T15:19:00;100602.41;;;4.81;100.00
45525;BME280;31437;58.350;13.828;2023-03-20T15:21:32;100611.97;;;4.80;100.00
45525;BME280;31437;58.350;13.828;2023-03-20T15:23:57;100592.47;;;4.62;100.00
45525;BME280;31437;58.350;13.828;2023-03-20T15:26:23;100620.63;;;4.81;100.00
45525;BME280;31437;58.350;13.828;2023-03-20T15:28:49;100617.13;;;4.82;100.00
45525;BME280;31437;58.350;13.828;2023-03-20T15:31:23;100622.31;;;4.82;100.00
45525;BME280;31437;58.350;13.828;2023-03-20T15:33:50;100627.50;;;4.82;100.00
45525;BME280;31437;58.350;13.828;2023-03-20T15:36:19;100636.16;;;4.82;100.00
45525;BME280;31437;58.350;13.828;2023-03-20T15:38:46;100631.91;;;4.80;100.00
45525;BME280;31437;58.350;13.828;2023-03-20T15:41:31;100639.78;;;4.76;100.00
45525;BME280;31437;58.350;13.828;2023-03-20T15:44:02;100648.38;;;4.78;100.00
45525;BME280;31437;58.350;13.828;2023-03-20T15:46:28;100646.69;;;4.76;100.00
45525;BME280;31437;58.350;13.828;2023-03-20T15:48:53;100643.25;;;4.75;100.00
45525;BME280;31437;58.350;13.828;2023-03-20T15:51:20;100653.66;;;4.75;100.00
45525;BME280;31437;58.350;13.828;2023-03-20T15:53:48;100649.31;;;4.76;100.00
45525;BME280;31437;58.350;13.828;2023-03-20T15:56:16;100652.81;;;4.73;100.00
45525;BME280;31437;58.350;13.828;2023-03-20T15:58:42;100661.53;;;4.72;100.00
45525;BME280;31437;58.350;13.828;2023-03-20T16:01:10;100660.69;;;4.70;100.00
45525;BME280;31437;58.350;13.828;2023-03-20T16:03:39;100665.03;;;4.71;100.00
45525;BME280;31437;58.350;13.828;2023-03-20T16:06:07;100670.28;;;4.68;100.00
45525;BME280;31437;58.350;13.828;2023-03-20T16:08:33;100667.69;;;4.68;100.00
45525;BME280;31437;58.350;13.828;2023-03-20T16:13:25;100679.84;;;4.66;100.00
45525;BME280;31437;58.350;13.828;2023-03-20T16:15:51;100679.00;;;4.66;100.00
45525;BME280;31437;58.350;13.828;2023-03-20T16:18:17;100682.44;;;4.66;100.00
45525;BME280;31437;58.350;13.828;2023-03-20T16:20:53;100682.44;;;4.68;100.00
45525;BME280;31437;58.350;13.828;2023-03-20T16:23:29;100696.28;;;4.67;100.00
45525;BME280;31437;58.350;13.828;2023-03-20T16:25:57;100699.75;;;4.67;100.00
45525;BME280;31437;58.350;13.828;2023-03-20T16:28:25;100698.88;;;4.67;100.00